sensor_id;sensor_type;location;lat;lon;timestamp;P1;durP1;ratioP1;P2;durP2;ratioP2
25107;SDS011;13090;53.422;7.670;2023-11-19T00:04:49;11.00;;;8.52;;
25107;SDS011;13090;53.422;7.670;2023-11-19T00:10:30;9.32;;;7.65;;
25107;SDS011;13090;53.422;7.670;2023-11-19T00:16:10;9.15;;;7.63;;
25107;SDS011;13090;53.422;7.670;2023-11-19T00:21:51;14.68;;;8.30;;
25107;SDS011;13090;53.422;7.670;2023-11-19T00:27:32;11.48;;;9.07;;
25107;SDS011;13090;53.422;7.670;2023-11-19T00:33:13;13.55;;;8.70;;
25107;SDS011;13090;53.422;7.670;2023-11-19T00:38:53;12.35;;;9.35;;
25107;SDS011;13090;53.422;7.670;2023-11-19T00:44:35;10.20;;;8.13;;
25107;SDS011;13090;53.422;7.670;2023-11-19T00:50:15;11.27;;;7.75;;
25107;SDS011;13090;53.422;7.670;2023-11-19T00:55:55;8.95;;;6.45;;
25107;SDS011;13090;53.422;7.670;2023-11-19T01:01:37;9.20;;;6.97;;
25107;SDS011;13090;53.422;7.670;2023-11-19T01:07:17;10.65;;;7.32;;
25107;SDS011;13090;53.422;7.670;2023-11-19T01:12:57;12.18;;;7.45;;
25107;SDS011;13090;53.422;7.670;2023-11-19T01:18:39;12.25;;;6.95;;
25107;SDS011;13090;53.422;7.670;2023-11-19T01:24:19;11.60;;;7.85;;
25107;SDS011;13090;53.422;7.670;2023-11-19T01:30:00;11.23;;;7.55;;
25107;SDS011;13090;53.422;7.670;2023-11-19T01:35:42;11.10;;;7.40;;
25107;SDS011;13090;53.422;7.670;2023-11-19T01:41:22;9.15;;;5.90;;
25107;SDS011;13090;53.422;7.670;2023-11-19T01:47:02;8.20;;;5.57;;
25107;SDS011;13090;53.422;7.670;2023-11-19T01:52:44;8.50;;;5.97;;
25107;SDS011;13090;53.422;7.670;2023-11-19T01:58:25;13.07;;;6.45;;
25107;SDS011;13090;53.422;7.670;2023-11-19T02:04:05;7.72;;;5.68;;
25107;SDS011;13090;53.422;7.670;2023-11-19T02:09:48;12.25;;;6.30;;
25107;SDS011;13090;53.422;7.670;2023-11-19T02:15:28;10.32;;;5.45;;
25107;SDS011;13090;53.422;7.670;2023-11-19T02:21:08;15.30;;;5.72;;
25107;SDS011;13090;53.422;7.670;2023-11-19T02:26:52;11.30;;;5.72;;
25107;SDS011;13090;53.422;7.670;2023-11-19T02:32:42;13.68;;;6.03;;
25107;SDS011;13090;53.422;7.670;2023-11-19T02:38:22;18.30;;;6.03;;
25107;SDS011;13090;53.422;7.670;2023-11-19T02:44:02;12.45;;;5.32;;
25107;SDS011;13090;53.422;7.670;2023-11-19T02:49:44;14.23;;;5.50;;
25107;SDS011;13090;53.422;7.670;2023-11-19T02:55:24;14.30;;;5.30;;
25107;SDS011;13090;53.422;7.670;2023-11-19T03:01:05;16.88;;;4.97;;
25107;SDS011;13090;53.422;7.670;2023-11-19T03:06:46;16.40;;;4.95;;
25107;SDS011;13090;53.422;7.670;2023-11-19T03:12:26;15.02;;;4.05;;
25107;SDS011;13090;53.422;7.670;2023-11-19T03:18:07;15.65;;;4.45;;
25107;SDS011;13090;53.422;7.670;2023-11-19T03:23:48;19.90;;;4.72;;
25107;SDS011;13090;53.422;7.670;2023-11-19T03:29:29;24.05;;;4.43;;
25107;SDS011;13090;53.422;7.670;2023-11-19T03:35:09;23.50;;;4.20;;
25107;SDS011;13090;53.422;7.670;2023-11-19T03:40:50;21.35;;;4.00;;
25107;SDS011;13090;53.422;7.670;2023-11-19T03:46:31;17.10;;;3.70;;
25107;SDS011;13090;53.422;7.670;2023-11-19T03:52:11;20.92;;;3.85;;
25107;SDS011;13090;53.422;7.670;2023-11-19T03:58:00;17.38;;;3.42;;
25107;SDS011;13090;53.422;7.670;2023-11-19T04:03:41;18.52;;;3.38;;
25107;SDS011;13090;53.422;7.670;2023-11-19T04:09:24;26.38;;;3.67;;
25107;SDS011;13090;53.422;7.670;2023-11-19T04:15:07;30.50;;;4.43;;
25107;SDS011;13090;53.422;7.670;2023-11-19T04:20:48;19.25;;;3.85;;
25107;SDS011;13090;53.422;7.670;2023-11-19T04:26:31;17.83;;;4.05;;
25107;SDS011;13090;53.422;7.670;2023-11-19T04:32:18;21.70;;;4.43;;
25107;SDS011;13090;53.422;7.670;2023-11-19T04:38:02;25.75;;;3.85;;
25107;SDS011;13090;53.422;7.670;2023-11-19T04:43:45;25.15;;;4.18;;
25107;SDS011;13090;53.422;7.670;2023-11-19T04:49:29;22.13;;;3.95;;
25107;SDS011;13090;53.422;7.670;2023-11-19T04:55:15;20.10;;;4.20;;
25107;SDS011;13090;53.422;7.670;2023-11-19T05:01:01;26.65;;;4.13;;
25107;SDS011;13090;53.422;7.670;2023-11-19T05:06:47;20.50;;;3.83;;
25107;SDS011;13090;53.422;7.670;2023-11-19T05:12:33;24.08;;;4.13;;
25107;SDS011;13090;53.422;7.670;2023-11-19T05:18:18;23.98;;;4.47;;
25107;SDS011;13090;53.422;7.670;2023-11-19T05:24:04;22.90;;;4.05;;
25107;SDS011;13090;53.422;7.670;2023-11-19T05:29:44;24.02;;;4.18;;
25107;SDS011;13090;53.422;7.670;2023-11-19T05:35:24;25.33;;;4.63;;
25107;SDS011;13090;53.422;7.670;2023-11-19T05:41:06;25.20;;;4.28;;
25107;SDS011;13090;53.422;7.670;2023-11-19T05:46:47;23.30;;;4.13;;
25107;SDS011;13090;53.422;7.670;2023-11-19T05:52:27;28.67;;;4.47;;
25107;SDS011;13090;53.422;7.670;2023-11-19T05:58:09;19.55;;;3.55;;
25107;SDS011;13090;53.422;7.670;2023-11-19T06:03:49;28.10;;;4.45;;
25107;SDS011;13090;53.422;7.670;2023-11-19T06:09:30;27.30;;;4.63;;
25107;SDS011;13090;53.422;7.670;2023-11-19T06:15:12;25.15;;;4.15;;
25107;SDS011;13090;53.422;7.670;2023-11-19T06:20:52;28.52;;;4.90;;
25107;SDS011;13090;53.422;7.670;2023-11-19T06:26:32;21.42;;;3.95;;
25107;SDS011;13090;53.422;7.670;2023-11-19T06:32:14;30.02;;;5.13;;
25107;SDS011;13090;53.422;7.670;2023-11-19T06:37:54;25.92;;;4.40;;
25107;SDS011;13090;53.422;7.670;2023-11-19T06:43:34;22.50;;;3.83;;
25107;SDS011;13090;53.422;7.670;2023-11-19T06:49:19;27.60;;;4.45;;
25107;SDS011;13090;53.422;7.670;2023-11-19T06:55:03;26.63;;;4.78;;
25107;SDS011;13090;53.422;7.670;2023-11-19T07:00:47;37.67;;;4.93;;
25107;SDS011;13090;53.422;7.670;2023-11-19T07:06:29;34.05;;;5.78;;
25107;SDS011;13090;53.422;7.670;2023-11-19T07:12:14;27.63;;;4.95;;
25107;SDS011;13090;53.422;7.670;2023-11-19T07:17:54;30.60;;;5.22;;
25107;SDS011;13090;53.422;7.670;2023-11-19T07:23:39;29.33;;;5.93;;
25107;SDS011;13090;53.422;7.670;2023-11-19T07:29:19;27.73;;;4.50;;
25107;SDS011;13090;53.422;7.670;2023-11-19T07:35:03;27.77;;;4.75;;
25107;SDS011;13090;53.422;7.670;2023-11-19T07:40:45;25.83;;;4.20;;
25107;SDS011;13090;53.422;7.670;2023-11-19T07:46:28;27.83;;;4.70;;
25107;SDS011;13090;53.422;7.670;2023-11-19T07:52:08;18.30;;;4.35;;
25107;SDS011;13090;53.422;7.670;2023-11-19T07:57:53;31.83;;;4.68;;
25107;SDS011;13090;53.422;7.670;2023-11-19T08:03:33;24.60;;;4.22;;
25107;SDS011;13090;53.422;7.670;2023-11-19T08:09:14;25.40;;;4.82;;
25107;SDS011;13090;53.422;7.670;2023-11-19T08:14:55;27.67;;;4.72;;
25107;SDS011;13090;53.422;7.670;2023-11-19T08:20:35;33.20;;;6.18;;
25107;SDS011;13090;53.422;7.670;2023-11-19T08:26:15;27.73;;;4.78;;
25107;SDS011;13090;53.422;7.670;2023-11-19T08:32:01;27.75;;;4.65;;
25107;SDS011;13090;53.422;7.670;2023-11-19T08:37:41;21.38;;;4.60;;
25107;SDS011;13090;53.422;7.670;2023-11-19T08:43:22;31.33;;;5.15;;
25107;SDS011;13090;53.422;7.670;2023-11-19T08:49:05;30.83;;;5.38;;
25107;SDS011;13090;53.422;7.670;2023-11-19T08:54:45;32.17;;;5.22;;
25107;SDS011;13090;53.422;7.670;2023-11-19T09:00:26;23.38;;;4.20;;
25107;SDS011;13090;53.422;7.670;2023-11-19T09:06:08;26.13;;;4.60;;
25107;SDS011;13090;53.422;7.670;2023-11-19T09:11:48;29.27;;;5.38;;
25107;SDS011;13090;53.422;7.670;2023-11-19T09:17:29;22.90;;;4.22;;
25107;SDS011;13090;53.422;7.670;2023-11-19T09:23:10;23.52;;;4.38;;
25107;SDS011;13090;53.422;7.670;2023-11-19T09:28:50;27.33;;;5.28;;
25107;SDS011;13090;53.422;7.670;2023-11-19T09:34:30;30.98;;;5.05;;
25107;SDS011;13090;53.422;7.670;2023-11-19T09:40:12;29.88;;;4.90;;
25107;SDS011;13090;53.422;7.670;2023-11-19T09:45:53;32.75;;;5.07;;
25107;SDS011;13090;53.422;7.670;2023-11-19T09:51:35;40.42;;;5.80;;
25107;SDS011;13090;53.422;7.670;2023-11-19T09:57:18;24.95;;;4.43;;
25107;SDS011;13090;53.422;7.670;2023-11-19T10:02:58;24.55;;;4.68;;
25107;SDS011;13090;53.422;7.670;2023-11-19T10:08:39;22.55;;;4.60;;
25107;SDS011;13090;53.422;7.670;2023-11-19T10:14:22;25.08;;;3.90;;
25107;SDS011;13090;53.422;7.670;2023-11-19T10:20:03;26.10;;;4.50;;
25107;SDS011;13090;53.422;7.670;2023-11-19T10:25:44;26.80;;;4.20;;
25107;SDS011;13090;53.422;7.670;2023-11-19T10:31:26;26.27;;;4.50;;
25107;SDS011;13090;53.422;7.670;2023-11-19T10:37:07;29.00;;;4.05;;
25107;SDS011;13090;53.422;7.670;2023-11-19T10:42:47;30.13;;;6.68;;
25107;SDS011;13090;53.422;7.670;2023-11-19T10:48:28;28.58;;;5.00;;
25107;SDS011;13090;53.422;7.670;2023-11-19T10:54:09;23.75;;;4.75;;
25107;SDS011;13090;53.422;7.670;2023-11-19T10:59:51;19.25;;;4.45;;
25107;SDS011;13090;53.422;7.670;2023-11-19T11:05:36;25.38;;;4.68;;
25107;SDS011;13090;53.422;7.670;2023-11-19T11:11:18;21.42;;;4.13;;
25107;SDS011;13090;53.422;7.670;2023-11-19T11:17:00;24.00;;;4.40;;
25107;SDS011;13090;53.422;7.670;2023-11-19T11:22:48;26.42;;;4.20;;
25107;SDS011;13090;53.422;7.670;2023-11-19T11:28:48;19.77;;;4.47;;
25107;SDS011;13090;53.422;7.670;2023-11-19T11:34:41;23.58;;;4.40;;
25107;SDS011;13090;53.422;7.670;2023-11-19T11:40:31;27.97;;;5.30;;
25107;SDS011;13090;53.422;7.670;2023-11-19T11:52:24;22.50;;;3.95;;
25107;SDS011;13090;53.422;7.670;2023-11-19T11:58:06;27.38;;;4.80;;
25107;SDS011;13090;53.422;7.670;2023-11-19T12:03:46;20.08;;;4.18;;
25107;SDS011;13090;53.422;7.670;2023-11-19T12:09:29;19.17;;;4.15;;
25107;SDS011;13090;53.422;7.670;2023-11-19T12:15:10;23.13;;;3.92;;
25107;SDS011;13090;53.422;7.670;2023-11-19T12:20:50;24.80;;;3.72;;
25107;SDS011;13090;53.422;7.670;2023-11-19T12:26:32;18.52;;;3.90;;
25107;SDS011;13090;53.422;7.670;2023-11-19T12:32:18;22.33;;;4.07;;
25107;SDS011;13090;53.422;7.670;2023-11-19T12:37:59;19.98;;;4.28;;
25107;SDS011;13090;53.422;7.670;2023-11-19T12:43:40;25.75;;;4.40;;
25107;SDS011;13090;53.422;7.670;2023-11-19T12:49:24;20.67;;;5.20;;
25107;SDS011;13090;53.422;7.670;2023-11-19T12:55:04;25.15;;;4.78;;
25107;SDS011;13090;53.422;7.670;2023-11-19T13:01:06;21.08;;;3.42;;
25107;SDS011;13090;53.422;7.670;2023-11-19T13:06:48;21.10;;;3.83;;
25107;SDS011;13090;53.422;7.670;2023-11-19T13:12:31;21.80;;;3.72;;
25107;SDS011;13090;53.422;7.670;2023-11-19T13:18:11;21.63;;;4.00;;
25107;SDS011;13090;53.422;7.670;2023-11-19T13:23:54;22.08;;;3.78;;
25107;SDS011;13090;53.422;7.670;2023-11-19T13:29:34;20.13;;;4.07;;
25107;SDS011;13090;53.422;7.670;2023-11-19T13:35:15;20.10;;;4.80;;
25107;SDS011;13090;53.422;7.670;2023-11-19T13:40:58;18.20;;;4.80;;
25107;SDS011;13090;53.422;7.670;2023-11-19T13:46:38;21.42;;;4.55;;
25107;SDS011;13090;53.422;7.670;2023-11-19T13:52:18;16.75;;;3.65;;
25107;SDS011;13090;53.422;7.670;2023-11-19T13:58:00;22.60;;;3.38;;
25107;SDS011;13090;53.422;7.670;2023-11-19T14:03:41;15.88;;;3.25;;
25107;SDS011;13090;53.422;7.670;2023-11-19T14:09:22;16.08;;;3.10;;
25107;SDS011;13090;53.422;7.670;2023-11-19T14:15:04;16.65;;;3.42;;
25107;SDS011;13090;53.422;7.670;2023-11-19T14:20:44;15.75;;;2.80;;
25107;SDS011;13090;53.422;7.670;2023-11-19T14:26:25;18.13;;;3.08;;
25107;SDS011;13090;53.422;7.670;2023-11-19T14:32:06;12.55;;;2.63;;
25107;SDS011;13090;53.422;7.670;2023-11-19T14:37:46;16.83;;;3.33;;
25107;SDS011;13090;53.422;7.670;2023-11-19T14:43:27;16.33;;;3.33;;
25107;SDS011;13090;53.422;7.670;2023-11-19T14:49:08;14.40;;;3.13;;
25107;SDS011;13090;53.422;7.670;2023-11-19T14:54:48;16.35;;;3.22;;
25107;SDS011;13090;53.422;7.670;2023-11-19T15:00:29;17.30;;;4.18;;
25107;SDS011;13090;53.422;7.670;2023-11-19T15:06:11;19.70;;;3.60;;
25107;SDS011;13090;53.422;7.670;2023-11-19T15:11:53;22.25;;;3.63;;
25107;SDS011;13090;53.422;7.670;2023-11-19T15:17:33;19.60;;;3.40;;
25107;SDS011;13090;53.422;7.670;2023-11-19T15:23:15;17.42;;;3.42;;
25107;SDS011;13090;53.422;7.670;2023-11-19T15:28:55;18.63;;;3.50;;
25107;SDS011;13090;53.422;7.670;2023-11-19T15:34:36;21.58;;;3.65;;
25107;SDS011;13090;53.422;7.670;2023-11-19T15:40:17;17.25;;;3.00;;
25107;SDS011;13090;53.422;7.670;2023-11-19T15:45:58;25.65;;;3.88;;
25107;SDS011;13090;53.422;7.670;2023-11-19T15:51:38;16.70;;;3.28;;
25107;SDS011;13090;53.422;7.670;2023-11-19T15:57:20;20.23;;;2.95;;
25107;SDS011;13090;53.422;7.670;2023-11-19T16:03:00;19.38;;;3.38;;
25107;SDS011;13090;53.422;7.670;2023-11-19T16:08:41;16.75;;;3.28;;
25107;SDS011;13090;53.422;7.670;2023-11-19T16:14:22;19.73;;;2.92;;
25107;SDS011;13090;53.422;7.670;2023-11-19T16:20:05;15.75;;;3.00;;
25107;SDS011;13090;53.422;7.670;2023-11-19T16:25:46;24.88;;;3.45;;
25107;SDS011;13090;53.422;7.670;2023-11-19T16:31:28;19.05;;;3.30;;
25107;SDS011;13090;53.422;7.670;2023-11-19T16:37:08;20.70;;;3.28;;
25107;SDS011;13090;53.422;7.670;2023-11-19T16:42:48;18.98;;;3.53;;
25107;SDS011;13090;53.422;7.670;2023-11-19T16:48:31;11.27;;;3.05;;
25107;SDS011;13090;53.422;7.670;2023-11-19T16:54:16;24.50;;;4.15;;
25107;SDS011;13090;53.422;7.670;2023-11-19T16:59:57;24.23;;;3.35;;
25107;SDS011;13090;53.422;7.670;2023-11-19T17:05:39;19.67;;;3.50;;
25107;SDS011;13090;53.422;7.670;2023-11-19T17:11:19;16.08;;;3.45;;
25107;SDS011;13090;53.422;7.670;2023-11-19T17:17:00;18.88;;;3.25;;
25107;SDS011;13090;53.422;7.670;2023-11-19T17:22:42;13.05;;;2.70;;
25107;SDS011;13090;53.422;7.670;2023-11-19T17:28:22;21.27;;;3.88;;
25107;SDS011;13090;53.422;7.670;2023-11-19T17:34:02;17.95;;;3.35;;
25107;SDS011;13090;53.422;7.670;2023-11-19T17:39:44;18.92;;;3.40;;
25107;SDS011;13090;53.422;7.670;2023-11-19T17:45:25;19.77;;;3.65;;
25107;SDS011;13090;53.422;7.670;2023-11-19T17:51:05;17.42;;;2.67;;
25107;SDS011;13090;53.422;7.670;2023-11-19T17:56:47;17.55;;;2.85;;
25107;SDS011;13090;53.422;7.670;2023-11-19T18:02:27;19.73;;;3.30;;
25107;SDS011;13090;53.422;7.670;2023-11-19T18:08:11;15.85;;;3.28;;
25107;SDS011;13090;53.422;7.670;2023-11-19T18:13:53;16.25;;;3.00;;
25107;SDS011;13090;53.422;7.670;2023-11-19T18:19:33;15.98;;;3.28;;
25107;SDS011;13090;53.422;7.670;2023-11-19T18:25:13;21.33;;;3.17;;
25107;SDS011;13090;53.422;7.670;2023-11-19T18:30:57;19.05;;;3.33;;
25107;SDS011;13090;53.422;7.670;2023-11-19T18:36:37;17.77;;;4.10;;
25107;SDS011;13090;53.422;7.670;2023-11-19T18:42:18;15.52;;;3.30;;
25107;SDS011;13090;53.422;7.670;2023-11-19T18:48:00;15.60;;;2.85;;
25107;SDS011;13090;53.422;7.670;2023-11-19T18:53:41;11.35;;;2.80;;
25107;SDS011;13090;53.422;7.670;2023-11-19T18:59:22;13.30;;;3.38;;
25107;SDS011;13090;53.422;7.670;2023-11-19T19:05:06;16.30;;;3.38;;
25107;SDS011;13090;53.422;7.670;2023-11-19T19:10:47;8.93;;;2.13;;
25107;SDS011;13090;53.422;7.670;2023-11-19T19:16:28;10.88;;;2.75;;
25107;SDS011;13090;53.422;7.670;2023-11-19T19:22:11;8.40;;;1.98;;
25107;SDS011;13090;53.422;7.670;2023-11-19T19:27:54;9.40;;;2.88;;
25107;SDS011;13090;53.422;7.670;2023-11-19T19:33:57;12.55;;;2.40;;
25107;SDS011;13090;53.422;7.670;2023-11-19T19:39:42;9.65;;;2.45;;
25107;SDS011;13090;53.422;7.670;2023-11-19T19:45:23;15.95;;;2.85;;
25107;SDS011;13090;53.422;7.670;2023-11-19T19:51:05;14.15;;;2.53;;
25107;SDS011;13090;53.422;7.670;2023-11-19T19:56:49;11.90;;;3.00;;
25107;SDS011;13090;53.422;7.670;2023-11-19T20:02:34;10.25;;;4.40;;
25107;SDS011;13090;53.422;7.670;2023-11-19T20:08:18;15.38;;;2.90;;
25107;SDS011;13090;53.422;7.670;2023-11-19T20:14:00;14.70;;;3.28;;
25107;SDS011;13090;53.422;7.670;2023-11-19T20:19:40;8.80;;;2.67;;
25107;SDS011;13090;53.422;7.670;2023-11-19T20:25:20;13.15;;;3.10;;
25107;SDS011;13090;53.422;7.670;2023-11-19T20:31:02;11.20;;;3.10;;
25107;SDS011;13090;53.422;7.670;2023-11-19T20:36:42;9.95;;;2.67;;
25107;SDS011;13090;53.422;7.670;2023-11-19T20:42:22;8.05;;;2.90;;
25107;SDS011;13090;53.422;7.670;2023-11-19T20:48:04;6.00;;;2.60;;
25107;SDS011;13090;53.422;7.670;2023-11-19T20:53:45;7.60;;;2.38;;
25107;SDS011;13090;53.422;7.670;2023-11-19T20:59:25;7.68;;;2.15;;
25107;SDS011;13090;53.422;7.670;2023-11-19T21:05:11;8.02;;;2.55;;
25107;SDS011;13090;53.422;7.670;2023-11-19T21:10:56;7.93;;;2.38;;
25107;SDS011;13090;53.422;7.670;2023-11-19T21:16:36;11.80;;;2.55;;
25107;SDS011;13090;53.422;7.670;2023-11-19T21:22:18;8.10;;;2.47;;
25107;SDS011;13090;53.422;7.670;2023-11-19T21:27:58;5.95;;;2.10;;
25107;SDS011;13090;53.422;7.670;2023-11-19T21:33:39;9.07;;;2.53;;
25107;SDS011;13090;53.422;7.670;2023-11-19T21:39:20;6.32;;;2.08;;
25107;SDS011;13090;53.422;7.670;2023-11-19T21:45:00;7.72;;;2.20;;
25107;SDS011;13090;53.422;7.670;2023-11-19T21:50:41;6.38;;;2.50;;
25107;SDS011;13090;53.422;7.670;2023-11-19T21:56:23;7.05;;;2.00;;
25107;SDS011;13090;53.422;7.670;2023-11-19T22:02:03;5.72;;;1.90;;
25107;SDS011;13090;53.422;7.670;2023-11-19T22:07:43;4.20;;;1.80;;
25107;SDS011;13090;53.422;7.670;2023-11-19T22:13:25;4.97;;;1.60;;
25107;SDS011;13090;53.422;7.670;2023-11-19T22:19:05;5.68;;;1.42;;
25107;SDS011;13090;53.422;7.670;2023-11-19T22:24:45;5.13;;;1.83;;
25107;SDS011;13090;53.422;7.670;2023-11-19T22:30:27;4.53;;;1.40;;
25107;SDS011;13090;53.422;7.670;2023-11-19T22:36:07;5.10;;;1.38;;
25107;SDS011;13090;53.422;7.670;2023-11-19T22:41:48;4.97;;;1.50;;
25107;SDS011;13090;53.422;7.670;2023-11-19T22:47:29;5.90;;;1.38;;
25107;SDS011;13090;53.422;7.670;2023-11-19T22:53:09;3.53;;;1.60;;
25107;SDS011;13090;53.422;7.670;2023-11-19T22:58:49;4.38;;;1.30;;
25107;SDS011;13090;53.422;7.670;2023-11-19T23:04:31;3.72;;;1.50;;
25107;SDS011;13090;53.422;7.670;2023-11-19T23:10:12;4.30;;;1.40;;
25107;SDS011;13090;53.422;7.670;2023-11-19T23:15:52;3.92;;;1.52;;
25107;SDS011;13090;53.422;7.670;2023-11-19T23:21:33;3.72;;;1.80;;
25107;SDS011;13090;53.422;7.670;2023-11-19T23:27:14;6.57;;;1.70;;
25107;SDS011;13090;53.422;7.670;2023-11-19T23:32:54;33.25;;;2.53;;
25107;SDS011;13090;53.422;7.670;2023-11-19T23:38:36;6.20;;;1.73;;
25107;SDS011;13090;53.422;7.670;2023-11-19T23:44:16;3.28;;;1.48;;
25107;SDS011;13090;53.422;7.670;2023-11-19T23:49:56;2.22;;;1.35;;
25107;SDS011;13090;53.422;7.670;2023-11-19T23:55:39;4.97;;;1.55;;
